Time;durP1;ratioP1;P1;durP2;ratioP2;P2;SDS_P1;SDS_P2;PMS_P1;PMS_P2;Temp;Humidity;BMP_temperature;BMP_pressure;BME280_temperature;BME280_humidity;BME280_pressure;Samples;Min_cycle;Max_cycle;Signal;HPM_P1;HPM_P2
2023/09/27 00:02:38;;;;;;;8.57;7.78;;;;;;;15.87;100.00;101904.28;10460645;28;20040;-67
2023/09/27 00:07:40;;;;;;;8.02;7.20;;;;;;;15.83;100.00;101908.50;10458540;28;20069;-68
2023/09/27 00:12:40;;;;;;;7.05;6.43;;;;;;;15.81;100.00;101908.69;10425662;28;20067;-67
2023/09/27 00:17:41;;;;;;;8.27;7.30;;;;;;;15.72;100.00;101918.13;10443226;28;20044;-67
2023/09/27 00:22:42;;;;;;;8.55;7.72;;;;;;;15.74;100.00;101910.56;10441003;28;20390;-67
2023/09/27 00:27:43;;;;;;;10.07;8.30;;;;;;;15.65;100.00;101919.97;10441594;28;20123;-67
2023/09/27 00:32:46;;;;;;;10.32;9.38;;;;;;;15.56;100.00;101913.84;10446821;28;20049;-67
2023/09/27 00:37:47;;;;;;;8.55;7.53;;;;;;;15.50;100.00;101913.81;10442181;28;20033;-68
2023/09/27 00:42:47;;;;;;;10.90;8.27;;;;;;;15.40;100.00;101903.28;10424602;28;20033;-67
2023/09/27 00:47:49;;;;;;;7.28;6.57;;;;;;;15.35;100.00;101908.56;10456865;28;20048;-67
2023/09/27 00:52:50;;;;;;;8.20;6.38;;;;;;;15.25;100.00;101888.97;10440695;28;20060;-68
2023/09/27 00:57:50;;;;;;;9.35;7.32;;;;;;;15.16;100.00;101899.25;10440860;28;20119;-67
2023/09/27 01:02:51;;;;;;;11.10;8.13;;;;;;;15.04;100.00;101912.59;10458593;28;20100;-68
2023/09/27 01:07:51;;;;;;;8.55;7.40;;;;;;;14.91;100.00;101909.81;10439593;28;20071;-67
2023/09/27 01:12:52;;;;;;;12.25;6.70;;;;;;;14.80;100.00;101915.81;10458001;28;20476;-68
2023/09/27 01:17:53;;;;;;;15.80;8.18;;;;;;;14.74;100.00;101922.06;10424237;28;20567;-68
2023/09/27 01:22:58;;;;;;;10.13;8.15;;;;;;;14.75;100.00;101905.53;10439823;28;20171;-67
2023/09/27 01:27:59;;;;;;;10.15;8.38;;;;;;;14.80;100.00;101904.91;10457970;28;20107;-68
2023/09/27 01:33:01;;;;;;;13.43;8.88;;;;;;;14.79;100.00;101908.69;10438447;28;20045;-67
2023/09/27 01:38:02;;;;;;;13.27;9.02;;;;;;;14.77;100.00;101925.28;10438372;28;20111;-68
2023/09/27 01:43:02;;;;;;;12.80;8.02;;;;;;;14.76;100.00;101934.47;10427851;28;20122;-67
2023/09/27 01:48:04;;;;;;;14.70;7.70;;;;;;;14.78;100.00;101928.84;10459046;28;20071;-67
2023/09/27 01:53:04;;;;;;;8.63;7.70;;;;;;;14.80;100.00;101937.63;10422287;28;20426;-68
2023/09/27 01:58:05;;;;;;;10.70;8.20;;;;;;;14.64;100.00;101928.75;10456611;28;20364;-68
2023/09/27 02:03:06;;;;;;;28.38;8.23;;;;;;;14.59;100.00;101933.94;10455872;28;20070;-67
2023/09/27 02:08:07;;;;;;;11.70;8.55;;;;;;;14.54;100.00;101950.03;10453918;28;20071;-66
2023/09/27 02:13:07;;;;;;;10.20;9.02;;;;;;;14.54;100.00;101927.41;10437634;28;20071;-66
2023/09/27 02:18:08;;;;;;;9.63;8.73;;;;;;;14.63;100.00;101927.03;10455019;28;20111;-66
2023/09/27 02:23:08;;;;;;;14.43;10.40;;;;;;;14.61;100.00;101906.47;10456261;28;20128;-68
2023/09/27 02:28:10;;;;;;;13.52;11.18;;;;;;;14.84;100.00;101896.16;10453335;28;20040;-68
2023/09/27 02:33:10;;;;;;;14.23;10.90;;;;;;;14.87;100.00;101901.19;10438057;28;20057;-68
2023/09/27 02:38:11;;;;;;;13.50;10.10;;;;;;;14.72;100.00;101910.53;10453825;28;20052;-67
2023/09/27 02:43:12;;;;;;;14.40;11.18;;;;;;;14.61;100.00;101917.38;10420236;28;20060;-67
2023/09/27 02:48:12;;;;;;;13.85;9.55;;;;;;;14.57;100.00;101919.66;10452552;28;20037;-68
2023/09/27 02:53:13;;;;;;;11.75;10.55;;;;;;;14.56;100.00;101933.50;10454419;28;20040;-67
2023/09/27 02:58:13;;;;;;;14.25;10.15;;;;;;;14.55;100.00;101946.28;10456999;28;20033;-67
2023/09/27 03:03:14;;;;;;;15.02;10.43;;;;;;;14.58;100.00;101951.34;10437127;28;20040;-67
2023/09/27 03:08:14;;;;;;;20.73;12.02;;;;;;;14.58;100.00;101947.75;10453539;28;20064;-66
2023/09/27 03:13:15;;;;;;;17.92;12.43;;;;;;;14.59;100.00;101947.56;10435824;28;20417;-67
2023/09/27 03:18:17;;;;;;;16.80;11.77;;;;;;;14.60;100.00;101940.22;10454636;28;20076;-67
2023/09/27 03:23:17;;;;;;;13.70;10.73;;;;;;;14.63;100.00;101948.00;10468861;28;20040;-67
2023/09/27 03:28:18;;;;;;;15.25;10.85;;;;;;;14.61;100.00;101937.31;10454344;28;20029;-67
2023/09/27 03:33:18;;;;;;;20.38;13.60;;;;;;;14.63;100.00;101942.56;10435023;28;20582;-67
2023/09/27 03:38:19;;;;;;;18.27;12.75;;;;;;;14.62;100.00;101957.25;10468557;28;20112;-67
2023/09/27 03:43:19;;;;;;;22.63;13.48;;;;;;;14.62;100.00;101960.81;10452448;28;20037;-67
2023/09/27 03:48:20;;;;;;;19.23;15.07;;;;;;;14.67;100.00;101929.38;10453377;28;20064;-67
2023/09/27 03:53:20;;;;;;;19.50;14.43;;;;;;;14.70;100.00;101923.53;10452145;28;20094;-66
2023/09/27 03:58:21;;;;;;;18.92;16.00;;;;;;;14.78;100.00;101935.13;10454311;28;20067;-67
2023/09/27 04:03:21;;;;;;;21.52;16.30;;;;;;;14.79;100.00;101933.22;10460341;28;20045;-66
2023/09/27 04:08:22;;;;;;;19.48;15.07;;;;;;;14.81;100.00;101918.38;10460744;28;20031;-68
2023/09/27 04:13:22;;;;;;;24.08;16.27;;;;;;;14.89;100.00;101926.38;10458794;28;20041;-66
2023/09/27 04:18:23;;;;;;;24.67;14.82;;;;;;;14.90;100.00;101913.59;10458343;28;20101;-66
2023/09/27 04:23:24;;;;;;;19.02;16.77;;;;;;;14.91;100.00;101917.16;10460462;28;20075;-67
2023/09/27 04:28:25;;;;;;;21.17;16.40;;;;;;;14.88;100.00;101908.31;10441186;28;20525;-67
2023/09/27 04:33:25;;;;;;;19.23;15.18;;;;;;;14.82;100.00;101906.41;10459471;28;20076;-66
2023/09/27 04:38:25;;;;;;;19.17;14.02;;;;;;;14.79;100.00;101914.97;10440897;28;20409;-67
2023/09/27 04:43:26;;;;;;;24.35;14.80;;;;;;;14.69;100.00;101916.41;10459099;28;20036;-67
2023/09/27 04:48:26;;;;;;;20.88;14.30;;;;;;;14.70;100.00;101888.91;10457762;28;20124;-66
2023/09/27 04:53:27;;;;;;;13.35;12.23;;;;;;;14.89;100.00;101903.72;10474501;28;20044;-66
2023/09/27 04:58:27;;;;;;;16.70;12.73;;;;;;;14.79;100.00;101898.63;10440276;28;20029;-67
2023/09/27 05:03:28;;;;;;;21.00;16.20;;;;;;;14.76;100.00;101877.22;10440509;28;20033;-68
2023/09/27 05:08:28;;;;;;;25.77;15.77;;;;;;;14.72;100.00;101888.72;10457213;28;20519;-68
2023/09/27 05:13:28;;;;;;;20.73;16.00;;;;;;;14.67;100.00;101883.03;10457907;28;20064;-67
2023/09/27 05:18:29;;;;;;;21.90;15.32;;;;;;;14.66;100.00;101898.53;10457095;28;20055;-67
2023/09/27 05:23:29;;;;;;;23.38;15.40;;;;;;;14.67;100.00;101899.38;10458626;28;20417;-65
2023/09/27 05:28:32;;;;;;;19.05;14.70;;;;;;;14.67;100.00;101872.13;10440795;28;20056;-68
2023/09/27 05:33:32;;;;;;;17.90;15.68;;;;;;;14.63;100.00;101877.97;10457382;28;20434;-67
2023/09/27 05:38:33;;;;;;;21.30;17.70;;;;;;;14.66;100.00;101884.91;10456809;28;20044;-66
2023/09/27 05:43:33;;;;;;;24.40;16.13;;;;;;;14.62;100.00;101903.56;10423278;28;20032;-66
2023/09/27 05:48:33;;;;;;;22.77;16.77;;;;;;;14.60;100.00;101899.34;10455786;28;20033;-66
2023/09/27 05:53:35;;;;;;;23.58;17.55;;;;;;;14.69;100.00;101889.97;10456628;28;20078;-66
2023/09/27 05:58:36;;;;;;;23.08;16.35;;;;;;;14.80;100.00;101894.00;10455999;28;20178;-66
2023/09/27 06:03:38;;;;;;;17.38;15.05;;;;;;;14.86;100.00;101899.50;10437918;28;20154;-66
2023/09/27 06:08:38;;;;;;;18.10;16.15;;;;;;;14.93;100.00;101887.78;10455839;28;20040;-66
2023/09/27 06:13:39;;;;;;;23.98;15.93;;;;;;;15.01;100.00;101891.19;10437488;28;20032;-66
2023/09/27 06:18:39;;;;;;;24.55;15.02;;;;;;;15.07;100.00;101887.66;10456051;28;20036;-66
2023/09/27 06:23:40;;;;;;;23.40;16.77;;;;;;;15.21;100.00;101858.53;10456527;28;20116;-68
2023/09/27 06:28:41;;;;;;;23.15;16.52;;;;;;;15.18;100.00;101845.28;10455205;28;20090;-67
2023/09/27 06:33:44;;;;;;;21.25;17.38;;;;;;;15.37;100.00;101849.13;10436191;28;20076;-67
2023/09/27 06:38:44;;;;;;;21.05;16.73;;;;;;;15.55;100.00;101876.69;10469666;28;20030;-67
2023/09/27 06:43:45;;;;;;;30.98;19.13;;;;;;;15.69;100.00;101901.31;10437686;28;20055;-66
2023/09/27 06:48:46;;;;;;;32.20;17.90;;;;;;;15.83;100.00;101922.16;10453335;28;20476;-67
2023/09/27 06:53:47;;;;;;;22.92;16.77;;;;;;;16.07;100.00;101931.63;10454323;28;20041;-67
2023/09/27 06:58:48;;;;;;;26.15;18.17;;;;;;;16.42;100.00;101948.66;10454068;28;20052;-67
2023/09/27 07:03:49;;;;;;;26.35;17.42;;;;;;;16.51;100.00;101954.75;10469317;28;20041;-67
2023/09/27 07:08:52;;;;;;;24.48;17.23;;;;;;;16.50;100.00;101950.34;10456495;28;20087;-68
2023/09/27 07:13:53;;;;;;;38.70;18.10;;;;;;;16.64;100.00;101948.44;10425109;28;20104;-68
2023/09/27 07:18:53;;;;;;;27.00;19.48;;;;;;;16.85;100.00;101958.34;10456747;28;20033;-69
2023/09/27 07:23:54;;;;;;;24.23;20.40;;;;;;;17.01;100.00;101943.38;10436412;28;20037;-67
2023/09/27 07:28:54;;;;;;;31.98;21.40;;;;;;;17.42;100.00;101934.75;10470146;28;20044;-68
2023/09/27 07:33:55;;;;;;;22.98;17.70;;;;;;;17.69;100.00;101943.69;10474190;28;20573;-67
2023/09/27 07:38:57;;;;;;;32.28;20.83;;;;;;;17.91;100.00;101952.44;10462834;28;20119;-67
2023/09/27 07:43:58;;;;;;;42.08;20.70;;;;;;;18.22;100.00;101943.38;10461148;28;20085;-66
2023/09/27 07:48:59;;;;;;;24.10;19.58;;;;;;;18.42;100.00;101939.63;10460117;28;20137;-66
2023/09/27 07:53:59;;;;;;;47.90;20.08;;;;;;;18.67;100.00;101945.09;10443556;28;20068;-66
2023/09/27 07:59:00;;;;;;;31.17;18.13;;;;;;;18.54;100.00;101951.56;10460282;28;20116;-67
2023/09/27 08:04:06;;;;;;;24.23;18.75;;;;;;;18.23;100.00;101950.53;10460522;28;20045;-68
2023/09/27 08:09:06;;;;;;;23.77;17.95;;;;;;;18.07;100.00;101951.06;10442876;28;20469;-68
2023/09/27 08:14:08;;;;;;;24.38;17.50;;;;;;;18.06;100.00;101971.31;10460361;28;20068;-68
2023/09/27 08:19:08;;;;;;;21.63;15.80;;;;;;;18.08;100.00;101958.22;10459040;28;20029;-67
2023/09/27 08:24:09;;;;;;;20.05;16.83;;;;;;;18.00;100.00;101939.34;10441183;28;20044;-68
2023/09/27 08:29:10;;;;;;;30.92;16.50;;;;;;;17.96;100.00;101938.06;10441294;28;20058;-67
2023/09/27 08:34:10;;;;;;;17.00;14.15;;;;;;;17.97;100.00;101929.66;10441003;28;20049;-69
2023/09/27 08:39:10;;;;;;;18.48;16.67;;;;;;;17.97;100.00;101934.28;10459272;28;20033;-69
2023/09/27 08:44:14;;;;;;;21.42;16.15;;;;;;;17.93;100.00;101955.78;10440033;28;20192;-67
2023/09/27 08:49:14;;;;;;;29.55;17.38;;;;;;;18.15;100.00;101939.81;10440656;28;20078;-67
2023/09/27 08:54:17;;;;;;;36.42;17.27;;;;;;;18.43;100.00;101949.53;10473037;28;20446;-68
2023/09/27 08:59:18;;;;;;;29.42;18.98;;;;;;;18.56;100.00;101952.97;10441445;28;20033;-68
2023/09/27 09:04:19;;;;;;;19.05;16.45;;;;;;;18.53;100.00;101941.63;10439565;28;20039;-67
2023/09/27 09:09:22;;;;;;;28.17;16.40;;;;;;;18.49;100.00;101945.88;10473330;28;20040;-67
2023/09/27 09:14:39;;;;;;;18.30;16.05;;;;;;;18.53;100.00;101950.69;10457876;28;20037;-67
2023/09/27 09:19:41;;;;;;;29.15;18.15;;;;;;;18.60;100.00;101928.66;10457854;28;20066;-67
2023/09/27 09:24:43;;;;;;;31.30;19.05;;;;;;;18.73;100.00;101930.47;10473353;28;20051;-68
2023/09/27 09:29:46;;;;;;;22.60;17.75;;;;;;;18.98;100.00;101938.66;10439376;28;20033;-67
2023/09/27 09:34:50;;;;;;;23.35;16.42;;;;;;;19.13;100.00;101938.28;10459017;28;20456;-68
2023/09/27 09:39:52;;;;;;;28.02;18.73;;;;;;;19.17;100.00;101934.00;10455207;28;20032;-68
2023/09/27 09:45:11;;;;;;;18.65;14.85;;;;;;;19.39;100.00;101929.72;10455007;28;20400;-67
2023/09/27 09:50:18;;;;;;;23.02;14.75;;;;;;;19.35;100.00;101903.78;10457461;28;20029;-68
2023/09/27 09:55:20;;;;;;;19.92;14.52;;;;;;;19.29;100.00;101883.56;10439447;28;20029;-68
2023/09/27 10:00:31;;;;;;;30.95;15.38;;;;;;;18.96;100.00;101829.09;10472152;28;20032;-69
2023/09/27 10:05:38;;;;;;;25.40;17.13;;;;;;;18.72;100.00;101841.84;10439360;28;20032;-67
2023/09/27 10:10:38;;;;;;;26.67;15.57;;;;;;;18.95;100.00;101848.53;10456081;28;20033;-69
2023/09/27 10:15:40;;;;;;;24.23;17.73;;;;;;;19.34;100.00;101858.19;10456523;28;20036;-68
2023/09/27 10:21:12;;;;;;;20.63;16.50;;;;;;;20.00;100.00;101856.34;10470900;28;20036;-68
2023/09/27 10:26:19;;;;;;;15.55;13.98;;;;;;;20.32;100.00;101834.81;10450388;28;20144;-68
2023/09/27 10:31:19;;;;;;;16.25;13.07;;;;;;;20.36;100.00;101837.97;10455130;28;20492;-68
2023/09/27 10:36:23;;;;;;;21.58;12.35;;;;;;;21.05;100.00;101841.66;10453143;28;20071;-69
2023/09/27 10:41:32;;;;;;;15.15;10.10;;;;;;;22.86;100.00;101836.13;10452636;28;20036;-67
2023/09/27 10:46:40;;;;;;;13.20;9.05;;;;;;;23.99;100.00;101838.97;10453893;28;20044;-67
2023/09/27 10:51:42;;;;;;;12.05;8.23;;;;;;;24.98;100.00;101830.97;10453898;28;20122;-68
2023/09/27 10:56:44;;;;;;;8.43;7.53;;;;;;;25.36;100.00;101821.41;10419979;28;20067;-68
2023/09/27 11:01:47;;;;;;;9.85;7.95;;;;;;;25.80;100.00;101814.53;10454187;28;20044;-67
2023/09/27 11:06:48;;;;;;;7.47;5.82;;;;;;;25.81;91.03;101810.66;10453142;28;20485;-70
2023/09/27 11:11:51;;;;;;;9.35;8.05;;;;;;;25.85;83.68;101809.84;10445629;28;20029;-68
2023/09/27 11:16:51;;;;;;;11.85;7.10;;;;;;;26.28;79.24;101787.28;10443854;28;20063;-67
2023/09/27 11:21:52;;;;;;;6.78;6.15;;;;;;;26.10;79.74;101792.34;10460058;28;20119;-68
2023/09/27 11:26:53;;;;;;;8.15;7.20;;;;;;;26.21;80.18;101790.34;10462652;28;20131;-68
2023/09/27 11:31:58;;;;;;;6.18;5.68;;;;;;;25.62;82.15;101765.97;10443730;28;20139;-67
2023/09/27 11:37:02;;;;;;;7.22;6.47;;;;;;;25.21;84.79;101752.94;10444350;28;20486;-67
2023/09/27 11:42:03;;;;;;;7.13;6.47;;;;;;;25.55;76.42;101744.06;10443576;28;20037;-68
2023/09/27 11:47:10;;;;;;;8.35;6.68;;;;;;;24.78;82.69;101749.47;10426611;28;20036;-69
2023/09/27 11:52:11;;;;;;;8.70;6.85;;;;;;;24.65;88.41;101744.44;10442208;28;20052;-68
2023/09/27 11:57:11;;;;;;;9.80;6.65;;;;;;;24.28;81.18;101725.13;10460626;28;20075;-68
2023/09/27 12:02:13;;;;;;;6.93;6.05;;;;;;;23.95;84.44;101718.88;10442451;28;20081;-70
2023/09/27 12:07:14;;;;;;;11.95;6.85;;;;;;;24.08;87.27;101695.44;10443006;28;20035;-68
2023/09/27 12:12:15;;;;;;;6.72;6.03;;;;;;;24.29;83.51;101674.22;10441956;28;20037;-69
2023/09/27 12:17:18;;;;;;;8.07;7.28;;;;;;;24.66;82.13;101679.63;10458540;28;20029;-67
2023/09/27 12:22:19;;;;;;;6.93;6.28;;;;;;;25.35;75.32;101667.25;10459042;28;20444;-67
2023/09/27 12:27:20;;;;;;;8.73;5.50;;;;;;;25.15;73.76;101648.69;10424533;28;20032;-67
2023/09/27 12:32:21;;;;;;;5.82;4.20;;;;;;;25.38;74.09;101627.06;10442373;28;20405;-68
2023/09/27 12:37:21;;;;;;;23.50;5.25;;;;;;;25.64;73.88;101617.56;10459704;28;20413;-68
2023/09/27 12:42:21;;;;;;;7.88;4.57;;;;;;;26.09;70.46;101610.22;10441384;28;20060;-67
2023/09/27 12:47:22;;;;;;;10.82;4.22;;;;;;;27.12;63.30;101613.16;10441241;28;20456;-68
2023/09/27 12:52:22;;;;;;;9.43;4.57;;;;;;;27.34;60.56;101627.44;10441461;28;20101;-67
2023/09/27 12:57:24;;;;;;;5.10;3.20;;;;;;;27.62;57.62;101626.91;10458522;28;20394;-68
2023/09/27 13:02:26;;;;;;;7.13;4.93;;;;;;;27.76;57.80;101630.63;10424805;28;20037;-67
2023/09/27 13:07:27;;;;;;;4.78;3.25;;;;;;;26.82;56.83;101628.16;10440638;28;20476;-66
2023/09/27 13:12:27;;;;;;;5.35;4.50;;;;;;;25.72;61.70;101624.50;10440556;28;20029;-68
2023/09/27 13:17:28;;;;;;;7.15;3.17;;;;;;;25.28;65.35;101627.91;10457449;28;20551;-68
2023/09/27 13:22:28;;;;;;;6.85;4.10;;;;;;;25.18;66.13;101617.66;10440247;28;20044;-69
2023/09/27 13:27:29;;;;;;;5.28;4.78;;;;;;;25.11;69.04;101608.78;10457048;28;20052;-68
2023/09/27 13:32:29;;;;;;;6.25;4.47;;;;;;;25.13;64.27;101606.56;10438037;28;20049;-67
2023/09/27 13:37:30;;;;;;;12.25;4.00;;;;;;;25.27;67.27;101596.59;10456043;28;20057;-66
2023/09/27 13:42:32;;;;;;;4.47;4.18;;;;;;;25.39;62.17;101592.66;10455044;28;20044;-68
2023/09/27 13:47:34;;;;;;;4.70;3.03;;;;;;;25.04;63.80;101586.03;10439068;28;20029;-66
2023/09/27 13:52:36;;;;;;;4.80;4.25;;;;;;;24.69;63.10;101579.38;10438938;28;20119;-67
2023/09/27 13:57:40;;;;;;;6.15;3.63;;;;;;;24.62;67.47;101572.47;10438176;28;20036;-67
2023/09/27 14:02:41;;;;;;;3.72;3.50;;;;;;;25.16;67.82;101558.88;10470990;28;20043;-68
2023/09/27 14:07:42;;;;;;;3.72;3.42;;;;;;;25.54;64.41;101555.75;10471185;28;20055;-67
2023/09/27 14:12:42;;;;;;;3.70;3.40;;;;;;;25.32;64.21;101547.78;10439291;28;20033;-67
2023/09/27 14:17:43;;;;;;;3.28;2.97;;;;;;;24.99;63.55;101547.25;10437432;28;20173;-66
2023/09/27 14:22:44;;;;;;;3.30;3.03;;;;;;;24.78;63.52;101549.19;10454811;28;20436;-68
2023/09/27 14:27:44;;;;;;;3.58;3.28;;;;;;;24.25;61.85;101521.72;10436429;28;20400;-67
2023/09/27 14:32:45;;;;;;;4.57;3.25;;;;;;;24.00;62.69;101516.97;10437050;28;20068;-67
2023/09/27 14:37:45;;;;;;;3.08;2.88;;;;;;;23.98;65.42;101502.56;10403725;28;20070;-67
2023/09/27 14:42:45;;;;;;;3.88;3.58;;;;;;;24.02;68.33;101483.47;10435395;28;20056;-68
2023/09/27 14:47:50;;;;;;;5.20;3.75;;;;;;;24.10;68.19;101482.94;10454318;28;20041;-68
2023/09/27 14:52:52;;;;;;;4.60;3.35;;;;;;;23.99;67.52;101475.72;10420144;28;20033;-66
2023/09/27 14:57:53;;;;;;;4.18;3.85;;;;;;;23.90;68.88;101465.22;10420319;28;20432;-67
2023/09/27 15:02:53;;;;;;;5.53;3.33;;;;;;;23.98;67.70;101454.69;10454577;28;20032;-68
2023/09/27 15:07:54;;;;;;;3.63;3.33;;;;;;;23.84;68.74;101446.94;10455283;28;20041;-67
2023/09/27 15:12:54;;;;;;;4.20;3.80;;;;;;;23.64;67.23;101442.16;10453920;28;20400;-69
2023/09/27 15:17:54;;;;;;;4.13;3.58;;;;;;;23.58;69.33;101411.97;10454619;28;20048;-67
2023/09/27 15:22:55;;;;;;;3.92;3.65;;;;;;;23.67;72.48;101413.97;10452592;28;20103;-66
2023/09/27 15:27:55;;;;;;;4.63;4.18;;;;;;;23.61;72.07;101422.50;10453576;28;20116;-68
2023/09/27 15:32:56;;;;;;;16.48;4.35;;;;;;;23.45;72.49;101424.38;10451643;28;20504;-67
2023/09/27 15:37:57;;;;;;;6.30;4.07;;;;;;;23.26;72.82;101429.59;10454264;28;20044;-68
2023/09/27 15:42:57;;;;;;;3.65;3.35;;;;;;;23.18;73.20;101419.03;10453781;28;20544;-66
2023/09/27 15:47:58;;;;;;;7.50;3.53;;;;;;;23.11;74.41;101410.16;10453579;28;20069;-67
2023/09/27 15:52:58;;;;;;;4.43;2.85;;;;;;;22.87;75.95;101410.53;10453383;28;20124;-68
2023/09/27 15:58:03;;;;;;;5.70;4.22;;;;;;;22.71;76.97;101400.50;10460915;28;20178;-67
2023/09/27 16:03:04;;;;;;;3.77;3.40;;;;;;;22.58;77.44;101407.31;10459860;28;20055;-67
2023/09/27 16:08:05;;;;;;;5.30;3.80;;;;;;;22.46;78.36;101414.97;10442139;28;20171;-66
2023/09/27 16:13:05;;;;;;;8.38;3.55;;;;;;;22.32;79.38;101408.25;10442349;28;20135;-68
2023/09/27 16:18:06;;;;;;;7.00;3.35;;;;;;;22.19;80.05;101412.28;10459630;28;20040;-66
2023/09/27 16:23:06;;;;;;;5.25;3.83;;;;;;;22.03;81.06;101403.84;10459731;28;20032;-66
2023/09/27 16:28:07;;;;;;;4.10;3.70;;;;;;;21.92;81.91;101392.97;10460162;28;20033;-67
2023/09/27 16:33:09;;;;;;;12.48;3.45;;;;;;;21.77;82.70;101385.38;10442245;28;20053;-67
2023/09/27 16:38:10;;;;;;;5.85;3.40;;;;;;;21.72;83.55;101371.53;10426433;28;20041;-67
2023/09/27 16:43:11;;;;;;;4.72;3.42;;;;;;;21.69;84.09;101377.56;10442631;28;20460;-67
2023/09/27 16:48:11;;;;;;;10.98;4.55;;;;;;;21.63;84.64;101379.44;10458765;28;20380;-67
2023/09/27 16:53:11;;;;;;;3.55;3.25;;;;;;;21.51;86.61;101362.25;10458884;28;20037;-68
2023/09/27 16:58:12;;;;;;;11.88;4.25;;;;;;;21.46;87.52;101363.00;10424896;28;20041;-67
2023/09/27 17:03:15;;;;;;;6.68;2.90;;;;;;;21.36;88.77;101360.16;10441701;28;20064;-67
2023/09/27 17:08:16;;;;;;;3.30;3.00;;;;;;;21.26;89.84;101347.06;10439919;28;20039;-68
2023/09/27 17:13:17;;;;;;;8.45;4.43;;;;;;;21.12;91.52;101341.13;10458935;28;20040;-67
2023/09/27 17:18:18;;;;;;;5.20;3.58;;;;;;;21.09;91.88;101352.66;10456554;28;20108;-67
2023/09/27 17:23:18;;;;;;;4.72;3.05;;;;;;;21.05;92.30;101350.66;10457329;28;20047;-66
2023/09/27 17:28:18;;;;;;;4.75;3.38;;;;;;;21.01;92.01;101338.50;10457395;28;20453;-67
2023/09/27 17:33:19;;;;;;;5.88;4.03;;;;;;;20.92;93.15;101351.03;10438664;28;20132;-67
2023/09/27 17:38:19;;;;;;;8.65;4.35;;;;;;;20.85;94.34;101345.72;10458157;28;20539;-67
2023/09/27 17:43:20;;;;;;;5.38;4.68;;;;;;;20.86;94.64;101336.38;10440884;28;20041;-67
2023/09/27 17:48:21;;;;;;;5.72;4.47;;;;;;;20.83;94.85;101334.13;10439751;28;20132;-68
2023/09/27 17:53:22;;;;;;;8.45;5.05;;;;;;;20.79;94.90;101330.22;10457264;28;20041;-68
2023/09/27 17:58:22;;;;;;;8.57;4.38;;;;;;;20.75;96.30;101329.09;10422066;28;20044;-67
2023/09/27 18:03:24;;;;;;;8.05;4.28;;;;;;;20.71;96.02;101317.75;10455405;28;20041;-66
2023/09/27 18:08:25;;;;;;;11.43;4.63;;;;;;;20.55;97.90;101297.47;10456375;28;20115;-68
2023/09/27 18:13:25;;;;;;;5.32;4.82;;;;;;;20.48;97.17;101296.75;10437672;28;20037;-68
2023/09/27 18:18:26;;;;;;;10.70;4.22;;;;;;;20.40;97.54;101299.97;10455522;28;20076;-67
2023/09/27 18:23:26;;;;;;;6.88;5.43;;;;;;;20.35;98.80;101297.94;10439153;28;20032;-67
2023/09/27 18:28:27;;;;;;;4.97;4.38;;;;;;;20.33;99.29;101299.31;10423550;28;20025;-67
2023/09/27 18:33:28;;;;;;;10.32;5.15;;;;;;;20.30;99.74;101294.31;10438956;28;20519;-67
2023/09/27 18:38:28;;;;;;;5.45;4.20;;;;;;;20.27;100.00;101281.06;10455503;28;20033;-68
2023/09/27 18:43:29;;;;;;;5.32;4.88;;;;;;;20.26;100.00;101290.38;10437502;28;20437;-67
2023/09/27 18:48:29;;;;;;;3.78;3.53;;;;;;;20.29;100.00;101295.38;10455594;28;20025;-67
2023/09/27 18:53:30;;;;;;;5.20;3.92;;;;;;;20.28;100.00;101283.56;10436713;28;20159;-66
2023/09/27 18:58:30;;;;;;;6.53;4.55;;;;;;;20.27;100.00;101256.31;10454729;28;20032;-68
2023/09/27 19:03:30;;;;;;;10.68;5.18;;;;;;;20.21;100.00;101258.97;10453469;28;20473;-66
2023/09/27 19:08:31;;;;;;;6.93;4.63;;;;;;;20.21;100.00;101247.97;10437607;28;20041;-68
2023/09/27 19:13:31;;;;;;;4.80;4.40;;;;;;;20.26;100.00;101249.13;10454769;28;20033;-69
2023/09/27 19:18:32;;;;;;;3.40;3.15;;;;;;;20.23;100.00;101250.50;10435923;28;20094;-67
2023/09/27 19:23:35;;;;;;;7.97;4.45;;;;;;;20.30;100.00;101229.13;10435440;28;20041;-67
2023/09/27 19:28:35;;;;;;;6.18;4.00;;;;;;;20.32;100.00;101187.63;10455680;28;20029;-68
2023/09/27 19:33:41;;;;;;;4.68;4.10;;;;;;;20.29;100.00;101172.44;10443694;28;20053;-66
2023/09/27 19:38:41;;;;;;;3.80;3.50;;;;;;;20.30;100.00;101184.31;10428354;28;20044;-67
2023/09/27 19:43:42;;;;;;;7.47;3.95;;;;;;;20.34;100.00;101210.19;10461577;28;20032;-65
2023/09/27 19:48:42;;;;;;;3.72;3.30;;;;;;;20.43;100.00;101204.00;10459935;28;20123;-66
2023/09/27 19:53:43;;;;;;;4.57;3.67;;;;;;;20.55;100.00;101181.03;10443099;28;20039;-68
2023/09/27 19:58:43;;;;;;;4.93;4.25;;;;;;;20.59;100.00;101165.72;10459888;28;20072;-66
2023/09/27 20:03:44;;;;;;;7.38;4.10;;;;;;;20.63;100.00;101151.16;10461246;28;20033;-67
2023/09/27 20:08:44;;;;;;;5.45;4.32;;;;;;;20.62;100.00;101157.75;10443225;28;20075;-67
2023/09/27 20:13:44;;;;;;;4.70;4.30;;;;;;;20.63;100.00;101178.69;10443933;28;20484;-67
2023/09/27 20:18:45;;;;;;;4.00;3.70;;;;;;;20.66;100.00;101171.81;10460569;28;20029;-67
2023/09/27 20:23:45;;;;;;;3.83;3.47;;;;;;;20.64;100.00;101174.00;10459769;28;20033;-67
2023/09/27 20:28:46;;;;;;;3.65;3.25;;;;;;;20.61;100.00;101167.13;10459823;28;20067;-68
2023/09/27 20:33:47;;;;;;;5.93;3.58;;;;;;;20.60;100.00;101159.94;10442286;28;20067;-67
2023/09/27 20:38:47;;;;;;;8.77;3.90;;;;;;;20.64;100.00;101154.72;10442162;28;20025;-67
2023/09/27 20:43:48;;;;;;;4.25;3.85;;;;;;;20.64;100.00;101135.47;10425028;28;20480;-67
2023/09/27 20:48:48;;;;;;;8.02;4.55;;;;;;;20.57;100.00;101105.41;10441043;28;20461;-68
2023/09/27 20:53:49;;;;;;;4.80;4.20;;;;;;;20.54;100.00;101103.19;10440766;28;20029;-66
2023/09/27 20:58:49;;;;;;;14.25;4.05;;;;;;;20.50;100.00;101110.28;10459263;28;20064;-67
2023/09/27 21:03:50;;;;;;;4.57;3.75;;;;;;;20.53;100.00;101109.78;10457650;28;20120;-68
2023/09/27 21:08:50;;;;;;;5.50;4.35;;;;;;;20.48;100.00;101108.84;10457351;28;20114;-67
2023/09/27 21:13:52;;;;;;;7.43;3.42;;;;;;;20.56;100.00;101117.53;10439899;28;20037;-67
2023/09/27 21:18:53;;;;;;;15.40;3.97;;;;;;;20.59;100.00;101172.03;10458549;28;20033;-68
2023/09/27 21:23:54;;;;;;;3.38;3.00;;;;;;;20.58;100.00;101175.88;10439138;28;20040;-66
2023/09/27 21:28:55;;;;;;;3.78;3.47;;;;;;;20.58;100.00;101131.84;10472565;28;20532;-68
2023/09/27 21:33:55;;;;;;;3.03;2.80;;;;;;;20.67;100.00;101148.72;10438983;28;20143;-67
2023/09/27 21:38:56;;;;;;;3.40;3.08;;;;;;;20.72;100.00;101158.97;10439077;28;20424;-67
2023/09/27 21:43:56;;;;;;;3.45;3.05;;;;;;;20.72;100.00;101150.72;10458148;28;20029;-66
2023/09/27 21:48:57;;;;;;;12.43;4.22;;;;;;;20.72;99.01;101143.28;10438732;28;20112;-67
2023/09/27 21:53:57;;;;;;;4.47;3.65;;;;;;;20.64;99.03;101139.09;10456694;28;20032;-66
2023/09/27 21:58:57;;;;;;;3.20;3.00;;;;;;;20.61;99.11;101147.84;10456557;28;20037;-66
2023/09/27 22:03:58;;;;;;;5.43;3.25;;;;;;;20.59;98.86;101152.78;10455431;28;20110;-67
2023/09/27 22:08:59;;;;;;;3.53;3.22;;;;;;;20.55;98.71;101159.88;10455477;28;20368;-67
2023/09/27 22:14:05;;;;;;;6.25;2.78;;;;;;;20.47;99.34;101165.81;10454956;28;20039;-67
2023/09/27 22:19:11;;;;;;;4.27;3.37;;;;;;;20.41;100.00;101159.41;10472194;28;20453;-67
2023/09/27 22:24:15;;;;;;;;;;;;;;;20.33;100.00;101148.03;10439543;28;20033;-67
2023/09/27 22:29:16;;;;;;;4.35;3.22;;;;;;;20.32;100.00;101125.19;10455311;28;19997;-67
2023/09/27 22:34:22;;;;;;;3.88;3.55;;;;;;;20.31;100.00;101137.28;10454727;28;20071;-66
2023/09/27 22:39:23;;;;;;;10.90;3.37;;;;;;;20.29;100.00;101133.13;10456447;28;20033;-66